Time;durP1;ratioP1;P1;durP2;ratioP2;P2;SDS_P1;SDS_P2;PMS_P1;PMS_P2;Temp;Humidity;BMP_temperature;BMP_pressure;BME280_temperature;BME280_humidity;BME280_pressure;Samples;Min_cycle;Max_cycle;Signal;HPM_P1;HPM_P2
2023/01/30 00:01:16;;;;;;;18.27;14.13;;;4.80;99.90;;;;;;4973745;28;20688;-76
2023/01/30 00:03:46;;;;;;;18.03;13.10;;;4.80;99.90;;;;;;4973867;28;20261;-79
2023/01/30 00:06:16;;;;;;;19.90;13.50;;;4.80;99.90;;;;;;4973766;28;20285;-77
2023/01/30 00:08:46;;;;;;;20.40;13.20;;;4.80;99.90;;;;;;4973755;28;20257;-77
2023/01/30 00:11:22;;;;;;;20.50;13.40;;;4.80;99.90;;;;;;4973373;28;20207;-77
2023/01/30 00:14:09;;;;;;;21.80;14.67;;;4.80;99.90;;;;;;4894327;29;20207;-77
2023/01/30 00:16:38;;;;;;;16.63;11.37;;;4.80;99.90;;;;;;4879336;29;20249;-76
2023/01/30 00:19:07;;;;;;;20.23;14.07;;;4.80;99.90;;;;;;4895133;29;20213;-76
2023/01/30 00:21:52;;;;;;;20.47;14.17;;;4.80;99.90;;;;;;4894539;29;20240;-76
2023/01/30 00:24:21;;;;;;;18.17;13.50;;;4.70;99.90;;;;;;4892969;29;20212;-75
2023/01/30 00:26:50;;;;;;;23.10;15.37;;;4.70;99.90;;;;;;4894911;29;20752;-76
2023/01/30 00:29:19;;;;;;;21.83;14.77;;;4.70;99.90;;;;;;4893725;29;20585;-76
2023/01/30 00:31:48;;;;;;;22.20;14.53;;;4.70;99.90;;;;;;4917335;29;20209;-75
2023/01/30 00:34:24;;;;;;;19.57;14.27;;;4.80;99.90;;;;;;4953945;28;20281;-76
2023/01/30 00:37:01;;;;;;;20.33;15.73;;;4.70;99.90;;;;;;4952251;28;20238;-75
2023/01/30 00:39:42;;;;;;;19.07;13.67;;;4.80;99.90;;;;;;4953697;29;20691;-76
2023/01/30 00:48:03;;;;;;;20.17;12.97;;;4.80;99.90;;;;;;4946581;28;20208;-77
2023/01/30 00:50:53;;;;;;;;;;;;;;;;;;;;;
2023/01/30 00:53:35;;;;;;;16.23;12.43;;;4.60;99.90;;;;;;4922744;28;20295;-75
2023/01/30 00:58:46;;;;;;;18.00;12.07;;;4.60;99.90;;;;;;4940742;28;20217;-77
2023/01/30 01:01:15;;;;;;;17.60;12.40;;;4.70;99.90;;;;;;4972400;28;20257;-76
2023/01/30 01:03:44;;;;;;;19.27;12.20;;;4.70;99.90;;;;;;4972739;28;20658;-77
2023/01/30 01:06:13;;;;;;;18.23;11.67;;;4.70;99.90;;;;;;4972774;28;20200;-75
2023/01/30 01:08:44;;;;;;;13.43;10.37;;;4.60;99.90;;;;;;4955225;28;20206;-76
2023/01/30 01:11:23;;;;;;;15.07;11.23;;;4.50;99.90;;;;;;4955133;28;20215;-76
2023/01/30 01:13:54;;;;;;;12.10;10.10;;;4.50;99.90;;;;;;4972607;28;20273;-77
2023/01/30 01:16:23;;;;;;;12.27;9.80;;;4.50;99.90;;;;;;4955104;28;21049;-76
2023/01/30 01:18:53;;;;;;;11.43;8.57;;;4.50;99.90;;;;;;4954969;28;20198;-75
2023/01/30 01:21:23;;;;;;;13.07;9.07;;;4.40;99.90;;;;;;4972186;28;20227;-75
2023/01/30 01:23:57;;;;;;;11.90;10.17;;;4.40;99.90;;;;;;4955108;28;20219;-78
2023/01/30 01:26:26;;;;;;;12.57;9.57;;;4.40;99.90;;;;;;4972369;28;20321;-77
2023/01/30 01:29:03;;;;;;;15.03;11.17;;;4.40;99.90;;;;;;4954905;28;20218;-77
2023/01/30 01:31:32;;;;;;;15.10;11.00;;;4.40;99.90;;;;;;4954870;28;20787;-76
2023/01/30 01:34:10;;;;;;;14.93;10.90;;;4.40;99.90;;;;;;4972535;28;20194;-76
2023/01/30 01:36:51;;;;;;;17.93;12.37;;;4.50;99.90;;;;;;4954801;28;20264;-76
2023/01/30 01:42:15;;;;;;;16.43;12.40;;;4.40;99.90;;;;;;4971426;28;20206;-75
2023/01/30 01:45:17;;;;;;;15.90;11.97;;;4.40;99.90;;;;;;4954989;28;20209;-75
2023/01/30 01:47:58;;;;;;;18.80;12.93;;;4.40;99.90;;;;;;4954992;28;20240;-75
2023/01/30 01:50:31;;;;;;;12.83;9.10;;;4.30;99.90;;;;;;4972155;28;20238;-75
2023/01/30 01:53:02;;;;;;;15.20;11.20;;;4.30;99.90;;;;;;4972498;28;20192;-76
2023/01/30 01:55:34;;;;;;;19.50;13.03;;;4.30;99.90;;;;;;4955412;28;20202;-75
2023/01/30 01:58:07;;;;;;;19.07;13.67;;;4.30;99.90;;;;;;4954971;28;20240;-76
2023/01/30 02:00:36;;;;;;;19.50;13.37;;;4.40;99.90;;;;;;4958453;28;20205;-76
2023/01/30 02:03:10;;;;;;;18.23;13.47;;;4.50;99.90;;;;;;4958627;28;20283;-77
2023/01/30 02:05:43;;;;;;;17.97;13.23;;;4.60;99.90;;;;;;4958343;28;20228;-77
2023/01/30 02:08:15;;;;;;;12.50;9.77;;;4.50;99.90;;;;;;4975987;28;20202;-76
2023/01/30 02:10:54;;;;;;;13.90;9.73;;;4.50;99.90;;;;;;4958489;28;20200;-75
2023/01/30 02:13:38;;;;;;;14.90;10.47;;;4.40;99.90;;;;;;4975677;28;20193;-77
2023/01/30 02:16:08;;;;;;;15.47;12.93;;;4.30;99.90;;;;;;4975158;28;20194;-76
2023/01/30 02:22:23;;;;;;;18.60;13.33;;;4.30;99.90;;;;;;4955687;28;20206;-76
2023/01/30 02:25:29;;;;;;;18.63;13.80;;;4.20;99.90;;;;;;4975329;28;20279;-76
2023/01/30 02:28:33;;;;;;;19.03;13.87;;;4.20;99.90;;;;;;4916001;29;20708;-76
2023/01/30 02:31:18;;;;;;;17.63;11.23;;;4.20;99.90;;;;;;4900127;29;20211;-75
2023/01/30 02:34:00;;;;;;;17.47;11.57;;;4.10;99.90;;;;;;4915732;29;20672;-76
2023/01/30 02:36:49;;;;;;;15.67;11.27;;;4.10;99.90;;;;;;4899734;29;20217;-75
2023/01/30 02:39:29;;;;;;;20.00;12.33;;;4.00;99.90;;;;;;4899742;29;20215;-76
2023/01/30 02:42:05;;;;;;;17.33;12.97;;;4.00;99.90;;;;;;4899454;29;20751;-75
2023/01/30 02:44:48;;;;;;;14.80;11.40;;;4.00;99.90;;;;;;4899688;29;20347;-76
2023/01/30 02:47:29;;;;;;;13.90;10.67;;;4.00;99.90;;;;;;4899579;29;20218;-77
2023/01/30 02:50:11;;;;;;;16.87;11.97;;;4.00;99.90;;;;;;4899525;29;20251;-78
2023/01/30 02:52:43;;;;;;;18.23;12.90;;;4.00;99.90;;;;;;4899092;29;20334;-77
2023/01/30 02:55:19;;;;;;;13.27;9.87;;;4.00;99.90;;;;;;4915240;29;20212;-78
2023/01/30 02:57:51;;;;;;;15.80;11.47;;;4.10;99.90;;;;;;4900171;29;20762;-77
2023/01/30 03:00:43;;;;;;;15.20;11.03;;;4.10;99.90;;;;;;4921995;23;20320;-76
2023/01/30 03:03:40;;;;;;;13.93;10.53;;;4.10;99.90;;;;;;4933602;23;20248;-77
2023/01/30 03:06:57;;;;;;;14.80;10.33;;;4.00;99.90;;;;;;4958280;28;20193;-77
2023/01/30 03:09:42;;;;;;;13.20;9.60;;;4.00;99.90;;;;;;4958183;28;20257;-77
2023/01/30 03:12:18;;;;;;;15.23;10.60;;;4.00;99.90;;;;;;4958434;28;20212;-79
2023/01/30 03:14:51;;;;;;;12.67;9.40;;;3.90;99.90;;;;;;4958094;28;20250;-79
2023/01/30 03:17:23;;;;;;;11.73;8.13;;;4.00;99.90;;;;;;4958134;28;20277;-78
2023/01/30 03:19:55;;;;;;;14.27;8.80;;;3.90;99.90;;;;;;4958136;28;20663;-78
2023/01/30 03:22:27;;;;;;;11.00;8.70;;;3.90;99.90;;;;;;4975262;28;20289;-76
2023/01/30 03:24:59;;;;;;;10.43;8.60;;;4.00;99.90;;;;;;4958048;28;20206;-77
2023/01/30 03:27:28;;;;;;;8.63;6.97;;;4.00;99.90;;;;;;4958128;28;20218;-78
2023/01/30 03:30:04;;;;;;;9.83;7.07;;;3.90;99.90;;;;;;4975415;28;20206;-77
2023/01/30 03:32:35;;;;;;;9.43;7.60;;;3.90;99.90;;;;;;4957724;28;20206;-78
2023/01/30 03:35:07;;;;;;;8.13;7.33;;;4.00;99.90;;;;;;4957784;28;20668;-76
2023/01/30 03:37:36;;;;;;;7.13;6.23;;;4.00;99.90;;;;;;4957513;28;20237;-77
2023/01/30 03:40:20;;;;;;;8.73;7.57;;;3.90;99.90;;;;;;4957737;28;20210;-76
2023/01/30 03:42:50;;;;;;;8.20;6.63;;;3.90;99.90;;;;;;4957670;28;20660;-77
2023/01/30 03:45:19;;;;;;;6.80;6.10;;;3.90;99.90;;;;;;4957551;28;20203;-76
2023/01/30 03:47:54;;;;;;;7.47;5.83;;;3.90;99.90;;;;;;4957915;28;20213;-77
2023/01/30 03:50:24;;;;;;;7.17;6.43;;;3.90;99.90;;;;;;4957683;28;20213;-78
2023/01/30 03:52:54;;;;;;;5.93;4.97;;;3.90;99.90;;;;;;4957482;28;20230;-76
2023/01/30 03:55:23;;;;;;;7.43;6.37;;;4.00;99.90;;;;;;4957864;28;20223;-76
2023/01/30 03:57:56;;;;;;;7.47;6.77;;;3.90;99.90;;;;;;4957521;28;20228;-77
2023/01/30 04:00:34;;;;;;;6.17;5.43;;;3.90;99.90;;;;;;4957338;28;20617;-78
2023/01/30 04:03:11;;;;;;;6.37;5.77;;;3.90;99.90;;;;;;4957186;28;20209;-77
2023/01/30 04:05:43;;;;;;;11.10;8.73;;;4.00;99.90;;;;;;4957405;28;20205;-78
2023/01/30 04:08:15;;;;;;;8.73;6.57;;;3.90;99.90;;;;;;4957254;28;20731;-77
2023/01/30 04:10:50;;;;;;;7.23;6.53;;;4.00;99.90;;;;;;4956950;28;20301;-77
2023/01/30 04:13:30;;;;;;;5.70;5.13;;;4.00;99.90;;;;;;4957048;28;20625;-77
2023/01/30 04:16:18;;;;;;;8.33;6.77;;;4.00;99.90;;;;;;4957100;28;20598;-78
2023/01/30 04:19:00;;;;;;;7.43;6.20;;;4.00;99.90;;;;;;4974420;28;20702;-78
2023/01/30 04:21:33;;;;;;;7.43;6.43;;;4.00;99.90;;;;;;4956566;28;20201;-78
2023/01/30 04:24:14;;;;;;;6.83;5.33;;;4.10;99.90;;;;;;4914637;29;20232;-77
2023/01/30 04:26:52;;;;;;;6.30;5.70;;;4.10;99.90;;;;;;4898845;29;20207;-78
2023/01/30 04:29:28;;;;;;;7.37;5.60;;;4.10;99.90;;;;;;4914751;29;20223;-78
2023/01/30 04:32:08;;;;;;;;;;;;;;;;;;;;;
2023/01/30 04:34:44;;;;;;;5.80;5.27;;;4.20;99.90;;;;;;4914177;29;20207;-80
2023/01/30 04:40:05;;;;;;;6.10;5.50;;;4.00;99.90;;;;;;4927914;23;20188;-78
2023/01/30 04:42:35;;;;;;;6.03;5.33;;;4.00;99.90;;;;;;4956533;28;20252;-79
2023/01/30 04:45:23;;;;;;;6.00;5.10;;;4.00;99.90;;;;;;4974237;28;20679;-79
2023/01/30 04:47:56;;;;;;;6.37;5.70;;;4.00;99.90;;;;;;4961868;23;20210;-79
2023/01/30 04:50:25;;;;;;;4.93;4.40;;;4.00;99.90;;;;;;4937291;29;20202;-79
2023/01/30 04:53:06;;;;;;;6.23;5.03;;;3.90;99.90;;;;;;4937418;29;20778;-79
2023/01/30 04:55:38;;;;;;;4.67;4.20;;;4.00;99.90;;;;;;4937259;29;20302;-78
2023/01/30 04:58:10;;;;;;;5.63;5.07;;;4.00;99.90;;;;;;4937308;29;20640;-80
2023/01/30 05:00:46;;;;;;;5.00;4.50;;;4.00;99.90;;;;;;4944550;23;20261;-79
2023/01/30 05:03:15;;;;;;;5.90;5.40;;;4.10;99.90;;;;;;4931991;29;20297;-78
2023/01/30 05:06:00;;;;;;;5.63;5.13;;;4.10;99.90;;;;;;4935314;29;20235;-79
2023/01/30 05:08:33;;;;;;;4.90;4.40;;;4.20;99.90;;;;;;4935127;29;20207;-80
2023/01/30 05:11:05;;;;;;;5.20;4.67;;;4.10;99.90;;;;;;4935062;29;20196;-79
2023/01/30 05:13:34;;;;;;;6.10;4.63;;;4.00;99.90;;;;;;4971545;23;20292;-80
2023/01/30 05:16:04;;;;;;;5.57;4.73;;;4.00;99.90;;;;;;4973416;28;20197;-78
2023/01/30 05:18:47;;;;;;;4.80;4.40;;;4.10;99.90;;;;;;4956139;28;20226;-77
2023/01/30 05:21:18;;;;;;;4.83;4.43;;;4.10;99.90;;;;;;4973553;28;20697;-77
2023/01/30 05:23:49;;;;;;;4.73;4.23;;;4.10;99.90;;;;;;4973564;28;20226;-76
2023/01/30 05:26:18;;;;;;;4.33;3.93;;;4.00;99.90;;;;;;4973291;28;20250;-76
2023/01/30 05:28:52;;;;;;;3.97;3.67;;;4.00;99.90;;;;;;4973413;28;20201;-77
2023/01/30 05:31:22;;;;;;;4.37;3.97;;;3.90;99.90;;;;;;4973822;28;20533;-79
2023/01/30 05:33:52;;;;;;;4.67;4.17;;;3.90;99.90;;;;;;4974320;28;20229;-76
2023/01/30 05:36:23;;;;;;;4.20;3.80;;;3.90;99.90;;;;;;4977471;28;20332;-76
2023/01/30 05:39:01;;;;;;;4.60;4.03;;;3.80;99.90;;;;;;4977243;28;20246;-76
2023/01/30 05:41:33;;;;;;;4.67;4.20;;;3.80;99.90;;;;;;4977290;28;20246;-76
2023/01/30 05:44:05;;;;;;;4.30;3.90;;;3.80;99.90;;;;;;4960115;28;20216;-77
2023/01/30 05:46:34;;;;;;;4.33;3.93;;;3.80;99.90;;;;;;4977240;28;20194;-77
2023/01/30 05:49:06;;;;;;;4.87;4.30;;;3.80;99.90;;;;;;4977141;28;20201;-77
2023/01/30 05:51:35;;;;;;;3.83;3.47;;;3.70;99.90;;;;;;4976907;28;20208;-78
2023/01/30 05:54:32;;;;;;;4.87;4.30;;;3.80;99.90;;;;;;4977005;28;20203;-79
2023/01/30 05:57:20;;;;;;;4.70;3.73;;;3.80;99.90;;;;;;4977052;28;20205;-80
2023/01/30 06:00:01;;;;;;;4.70;3.67;;;3.80;99.90;;;;;;4976864;28;20226;-79
2023/01/30 06:02:46;;;;;;;4.10;3.70;;;3.70;99.90;;;;;;4977297;28;20209;-78
2023/01/30 06:05:25;;;;;;;9.67;7.53;;;3.80;99.90;;;;;;4976878;28;20664;-77
2023/01/30 06:07:54;;;;;;;5.13;4.63;;;3.80;99.90;;;;;;4885887;29;20618;-78
2023/01/30 06:10:39;;;;;;;5.23;4.27;;;3.70;99.90;;;;;;4897621;29;20236;-77
2023/01/30 06:13:14;;;;;;;4.37;3.97;;;3.70;99.90;;;;;;4916592;29;20327;-78
2023/01/30 06:15:44;;;;;;;5.53;4.57;;;3.70;99.90;;;;;;4917072;29;20206;-78
2023/01/30 06:18:13;;;;;;;4.63;4.17;;;3.80;99.90;;;;;;4916401;29;20216;-78
2023/01/30 06:20:48;;;;;;;4.17;3.77;;;3.70;99.90;;;;;;4916087;29;20232;-77
2023/01/30 06:23:18;;;;;;;5.20;4.70;;;3.80;99.90;;;;;;4915811;29;20347;-71
2023/01/30 06:25:49;;;;;;;5.20;4.13;;;3.70;99.90;;;;;;4915927;29;20682;-75
2023/01/30 06:28:22;;;;;;;5.13;4.47;;;3.70;99.90;;;;;;4915859;29;20220;-77
2023/01/30 06:30:51;;;;;;;4.23;3.83;;;3.70;99.90;;;;;;4915810;29;20210;-77
2023/01/30 06:33:21;;;;;;;4.83;4.37;;;3.70;99.90;;;;;;4915679;29;20280;-77
2023/01/30 06:35:51;;;;;;;4.47;4.07;;;3.70;99.90;;;;;;4912580;29;20229;-76
2023/01/30 06:38:29;;;;;;;3.70;3.40;;;3.70;99.90;;;;;;4919234;29;20207;-77
2023/01/30 06:41:03;;;;;;;3.77;3.47;;;3.70;99.90;;;;;;4936911;29;20214;-75
2023/01/30 06:43:41;;;;;;;5.13;4.63;;;3.70;99.90;;;;;;4936777;29;20200;-78
2023/01/30 06:46:16;;;;;;;3.67;3.37;;;3.70;99.90;;;;;;4936015;29;20224;-78
2023/01/30 06:48:57;;;;;;;4.87;4.30;;;3.80;99.90;;;;;;4936379;29;20195;-77
2023/01/30 06:51:26;;;;;;;3.53;3.23;;;3.70;99.90;;;;;;4936597;29;20289;-77
2023/01/30 06:54:16;;;;;;;4.80;3.90;;;3.70;99.90;;;;;;4933866;29;20214;-79
2023/01/30 06:59:58;;;;;;;4.47;3.43;;;3.70;99.90;;;;;;4934955;29;20334;-79
2023/01/30 07:02:29;;;;;;;4.97;4.33;;;3.80;99.90;;;;;;4936356;29;20266;-80
2023/01/30 07:04:58;;;;;;;5.07;3.83;;;3.70;99.90;;;;;;4936304;29;20557;-79
2023/01/30 07:07:27;;;;;;;4.50;4.10;;;3.80;99.90;;;;;;4935732;29;20234;-79
2023/01/30 07:10:10;;;;;;;5.93;4.53;;;3.80;99.90;;;;;;4944292;23;20199;-79
2023/01/30 07:12:41;;;;;;;4.53;3.07;;;3.80;99.90;;;;;;4955355;28;20231;-79
2023/01/30 07:15:14;;;;;;;4.67;4.23;;;3.70;99.90;;;;;;4955377;28;20226;-78
2023/01/30 07:17:46;;;;;;;5.53;4.23;;;3.70;99.90;;;;;;4955466;28;20207;-79
2023/01/30 07:20:54;;;;;;;4.70;4.20;;;3.70;99.90;;;;;;4938940;29;20325;-79
2023/01/30 07:23:23;;;;;;;4.47;4.07;;;3.80;99.90;;;;;;4955930;28;20252;-79
2023/01/30 07:25:51;;;;;;;5.63;4.23;;;3.80;99.90;;;;;;4956089;28;20227;-78
2023/01/30 07:28:22;;;;;;;4.40;3.43;;;3.80;99.90;;;;;;4954402;28;20204;-78
2023/01/30 07:30:51;;;;;;;4.57;4.17;;;3.90;99.90;;;;;;4938636;29;20698;-79
2023/01/30 07:33:33;;;;;;;4.37;3.97;;;3.90;99.90;;;;;;4955667;28;20193;-79
2023/01/30 07:36:19;;;;;;;4.47;3.17;;;3.90;99.90;;;;;;4955805;29;20236;-79
2023/01/30 07:38:52;;;;;;;5.13;4.20;;;3.90;99.90;;;;;;4955732;28;20198;-78
2023/01/30 07:41:28;;;;;;;3.93;3.53;;;3.80;99.90;;;;;;4955859;28;20220;-77
2023/01/30 07:43:59;;;;;;;3.23;2.97;;;3.80;99.90;;;;;;4955762;28;20198;-78
2023/01/30 07:46:33;;;;;;;5.33;3.63;;;3.80;99.90;;;;;;4955839;28;20318;-77
2023/01/30 07:49:03;;;;;;;6.77;5.23;;;3.90;99.90;;;;;;4955679;28;20190;-78
2023/01/30 07:51:32;;;;;;;4.63;4.07;;;4.00;99.90;;;;;;4955778;28;20228;-76
2023/01/30 07:54:04;;;;;;;5.50;3.93;;;4.00;99.90;;;;;;4955595;28;20210;-77
2023/01/30 07:56:34;;;;;;;6.33;5.10;;;4.10;99.90;;;;;;4954762;28;20209;-77
2023/01/30 07:59:05;;;;;;;4.23;3.57;;;4.10;99.90;;;;;;4955379;28;20213;-80
2023/01/30 08:01:36;;;;;;;4.23;3.83;;;4.20;99.90;;;;;;4955377;28;20287;-78
2023/01/30 08:04:05;;;;;;;7.27;5.23;;;4.20;99.90;;;;;;4955411;28;20207;-78
2023/01/30 08:06:38;;;;;;;6.63;4.73;;;4.20;99.90;;;;;;4877452;29;20692;-79
2023/01/30 08:09:07;;;;;;;5.53;4.27;;;4.20;99.90;;;;;;4877375;29;20209;-78
2023/01/30 08:12:12;;;;;;;7.60;4.70;;;4.20;99.90;;;;;;4963014;23;20310;-79
2023/01/30 08:14:49;;;;;;;6.00;3.93;;;4.30;99.90;;;;;;4974537;28;20289;-77
2023/01/30 08:17:21;;;;;;;3.93;3.37;;;4.30;99.90;;;;;;4974331;28;20200;-77
2023/01/30 08:19:56;;;;;;;5.93;4.60;;;4.30;99.90;;;;;;4974300;28;20228;-77
2023/01/30 08:22:29;;;;;;;4.33;3.70;;;4.20;99.90;;;;;;4974373;28;20287;-80
2023/01/30 08:24:58;;;;;;;5.07;4.13;;;4.30;99.90;;;;;;4956924;28;20266;-76
2023/01/30 08:27:35;;;;;;;4.57;3.70;;;4.30;99.90;;;;;;4973968;28;20207;-79
2023/01/30 08:30:07;;;;;;;4.53;4.23;;;4.30;99.90;;;;;;4974188;28;20567;-78
2023/01/30 08:32:36;;;;;;;3.70;3.40;;;4.20;99.90;;;;;;4974136;28;20193;-77
2023/01/30 08:35:06;;;;;;;4.27;3.87;;;4.30;99.90;;;;;;4974148;28;20221;-77
2023/01/30 08:37:35;;;;;;;5.30;4.67;;;4.30;99.90;;;;;;4974009;28;20254;-78
2023/01/30 08:40:07;;;;;;;5.93;3.43;;;4.20;99.90;;;;;;4973985;28;20274;-80
2023/01/30 08:42:36;;;;;;;6.03;3.90;;;4.20;99.90;;;;;;4972645;28;20193;-75
2023/01/30 08:45:09;;;;;;;4.33;3.93;;;4.20;99.90;;;;;;4974309;28;20618;-76
2023/01/30 08:47:40;;;;;;;5.00;4.50;;;4.20;99.90;;;;;;4970239;28;20702;-78
2023/01/30 08:50:11;;;;;;;4.47;3.87;;;4.20;99.90;;;;;;4959415;28;20674;-78
2023/01/30 08:52:46;;;;;;;6.67;4.53;;;4.30;99.90;;;;;;4953192;28;20685;-76
2023/01/30 08:55:15;;;;;;;9.20;5.43;;;4.20;99.90;;;;;;4953962;28;20294;-75
2023/01/30 08:57:47;;;;;;;4.57;4.13;;;4.30;99.90;;;;;;4954777;28;20196;-76
2023/01/30 09:00:19;;;;;;;5.83;4.77;;;4.40;99.90;;;;;;4954090;28;20217;-78
2023/01/30 09:02:48;;;;;;;7.00;5.10;;;4.50;99.90;;;;;;4936635;28;20224;-78
2023/01/30 09:05:17;;;;;;;10.17;5.90;;;4.50;99.90;;;;;;4974452;23;20307;-74
2023/01/30 09:07:46;;;;;;;6.77;6.03;;;4.50;99.90;;;;;;4973396;28;20675;-77
2023/01/30 09:10:15;;;;;;;8.43;6.40;;;4.60;99.90;;;;;;4973275;28;20210;-76
2023/01/30 09:12:51;;;;;;;7.00;5.87;;;4.60;99.90;;;;;;4954213;28;20288;-74
2023/01/30 09:15:25;;;;;;;10.57;6.80;;;4.60;99.90;;;;;;4954131;28;20285;-78
2023/01/30 09:17:54;;;;;;;12.33;8.53;;;4.60;99.90;;;;;;4954181;28;20197;-78
2023/01/30 09:20:27;;;;;;;9.50;5.90;;;4.60;99.90;;;;;;4936623;29;20220;-76
2023/01/30 09:22:58;;;;;;;8.43;6.03;;;4.60;99.90;;;;;;4953987;28;20201;-78
2023/01/30 09:25:27;;;;;;;8.03;6.37;;;4.60;99.90;;;;;;4968716;28;20232;-78
2023/01/30 09:27:58;;;;;;;10.33;6.63;;;4.60;99.90;;;;;;4973278;28;20656;-79
2023/01/30 09:30:38;;;;;;;13.07;7.73;;;4.70;99.90;;;;;;4972892;28;20235;-77
2023/01/30 09:33:19;;;;;;;15.07;7.77;;;4.80;99.90;;;;;;4980267;23;20246;-75
2023/01/30 09:35:48;;;;;;;13.67;8.87;;;4.90;99.90;;;;;;4963448;23;20742;-78
2023/01/30 09:38:17;;;;;;;16.27;8.57;;;5.00;99.90;;;;;;4936383;29;20207;-76
2023/01/30 09:41:28;;;;;;;15.93;7.77;;;5.00;99.90;;;;;;4953423;28;20229;-77
2023/01/30 09:44:15;;;;;;;15.27;7.90;;;5.10;99.90;;;;;;4954034;29;20279;-75
2023/01/30 09:46:55;;;;;;;16.33;8.30;;;5.20;99.90;;;;;;4936542;29;20206;-76
2023/01/30 09:49:39;;;;;;;14.40;8.30;;;5.30;99.90;;;;;;4953920;29;20220;-76
2023/01/30 10:05:07;;;;;;;13.40;7.33;;;5.50;99.90;;;;;;4952706;28;20262;-80
2023/01/30 10:08:08;;;;;;;17.67;7.27;;;5.60;99.90;;;;;;4953710;28;20199;-80
2023/01/30 10:10:49;;;;;;;14.50;6.60;;;5.60;99.90;;;;;;4877191;29;20779;-77
2023/01/30 10:14:10;;;;;;;14.00;5.43;;;5.60;99.90;;;;;;4860458;29;20213;-78
2023/01/30 10:17:06;;;;;;;6.07;3.50;;;5.60;99.90;;;;;;4820654;29;20210;-79
2023/01/30 10:20:30;;;;;;;10.10;4.97;;;5.60;99.90;;;;;;4820938;29;20606;-76
2023/01/30 10:23:22;;;;;;;8.47;4.33;;;5.70;99.90;;;;;;4865628;23;20271;-78
2023/01/30 10:26:09;;;;;;;15.70;5.47;;;5.80;99.90;;;;;;4956709;29;20227;-79
2023/01/30 10:28:45;;;;;;;9.83;3.70;;;5.80;99.90;;;;;;4957033;29;20284;-81
2023/01/30 10:31:35;;;;;;;11.03;3.87;;;5.80;99.90;;;;;;4956893;29;20200;-79
2023/01/30 10:34:19;;;;;;;14.37;4.20;;;5.90;99.90;;;;;;4957060;29;20207;-76
2023/01/30 10:36:53;;;;;;;8.17;3.73;;;5.90;99.90;;;;;;4957015;29;20287;-79
2023/01/30 10:39:55;;;;;;;11.67;3.93;;;6.00;99.90;;;;;;4956244;29;20300;-78
2023/01/30 10:42:29;;;;;;;14.87;4.77;;;6.00;99.90;;;;;;4945873;28;20234;-78
2023/01/30 10:45:27;;;;;;;16.73;5.53;;;6.00;99.90;;;;;;4976097;28;20244;-77
2023/01/30 10:48:09;;;;;;;13.27;3.90;;;6.00;99.90;;;;;;4969929;28;20204;-77
2023/01/30 10:50:56;;;;;;;7.50;3.57;;;6.10;99.90;;;;;;4972049;28;20199;-78
2023/01/30 10:53:38;;;;;;;10.63;4.70;;;6.10;99.90;;;;;;4975767;28;20220;-77
2023/01/30 10:56:15;;;;;;;9.47;3.73;;;6.10;99.90;;;;;;4982336;23;20271;-77
2023/01/30 10:59:00;;;;;;;12.80;4.77;;;6.10;99.90;;;;;;4975620;28;20728;-78
2023/01/30 11:01:40;;;;;;;16.10;4.43;;;6.10;99.90;;;;;;4975865;28;20223;-78
2023/01/30 11:04:26;;;;;;;13.20;4.60;;;6.10;99.90;;;;;;4975827;28;20595;-77
2023/01/30 11:06:59;;;;;;;12.80;3.70;;;6.30;99.90;;;;;;4956809;28;20195;-78
2023/01/30 11:09:49;;;;;;;13.50;4.30;;;6.50;99.90;;;;;;4956333;28;20200;-80
2023/01/30 11:12:18;;;;;;;17.37;4.83;;;6.50;99.90;;;;;;4960257;23;20573;-79
2023/01/30 11:14:55;;;;;;;14.63;4.80;;;6.50;99.90;;;;;;4976751;23;20235;-80
2023/01/30 11:17:41;;;;;;;17.70;4.37;;;6.50;99.90;;;;;;4975866;28;20236;-79
2023/01/30 11:21:05;;;;;;;14.00;4.77;;;6.50;99.90;;;;;;4963579;28;20655;-77
2023/01/30 11:23:40;;;;;;;10.30;4.20;;;6.50;99.90;;;;;;4994928;28;20227;-79
2023/01/30 11:26:46;;;;;;;18.70;4.60;;;6.50;99.90;;;;;;4992847;28;20193;-78
2023/01/30 11:29:35;;;;;;;15.17;3.87;;;6.40;99.90;;;;;;4975641;28;20251;-79
2023/01/30 11:32:13;;;;;;;16.73;5.37;;;6.50;99.90;;;;;;4974174;28;20719;-79
2023/01/30 11:35:03;;;;;;;13.40;4.63;;;6.50;99.90;;;;;;4977904;28;20203;-79
2023/01/30 11:37:45;;;;;;;13.17;4.87;;;6.50;99.90;;;;;;4978299;28;20202;-76
2023/01/30 11:40:25;;;;;;;15.03;4.10;;;6.50;99.90;;;;;;4974941;28;20200;-78
2023/01/30 11:43:13;;;;;;;16.97;3.97;;;6.50;99.90;;;;;;4973574;28;20710;-79
2023/01/30 11:45:58;;;;;;;12.63;3.97;;;6.50;99.90;;;;;;4974958;28;20282;-78
2023/01/30 11:49:03;;;;;;;24.90;10.37;;;6.50;99.90;;;;;;4957630;28;20541;-78
2023/01/30 11:51:54;;;;;;;11.80;4.93;;;6.60;99.90;;;;;;4975024;28;20200;-79
2023/01/30 11:54:36;;;;;;;21.00;6.40;;;6.70;99.90;;;;;;4974908;28;20214;-78
2023/01/30 11:57:21;;;;;;;13.37;4.63;;;6.80;99.90;;;;;;4985144;28;20236;-77
2023/01/30 12:00:14;;;;;;;20.67;5.53;;;6.80;99.90;;;;;;4957441;28;20212;-78
2023/01/30 12:02:54;;;;;;;13.33;4.03;;;6.80;99.90;;;;;;4974729;28;20235;-77
2023/01/30 12:05:31;;;;;;;12.03;4.53;;;6.70;99.90;;;;;;4981453;23;20287;-78
2023/01/30 12:08:18;;;;;;;17.43;4.47;;;6.70;99.90;;;;;;4974783;28;20586;-79
2023/01/30 12:10:59;;;;;;;15.07;5.10;;;6.80;99.90;;;;;;4974356;28;20203;-79
2023/01/30 12:13:34;;;;;;;16.33;3.63;;;6.80;99.90;;;;;;4974541;28;20199;-80
2023/01/30 12:16:18;;;;;;;13.60;3.47;;;6.80;99.90;;;;;;4974421;28;20201;-80
2023/01/30 12:19:08;;;;;;;8.77;5.27;;;6.80;99.90;;;;;;4982457;23;20192;-79
2023/01/30 12:21:49;;;;;;;10.53;4.03;;;6.70;99.90;;;;;;4953843;28;20210;-78
2023/01/30 12:24:32;;;;;;;13.73;4.20;;;6.70;99.90;;;;;;4955071;28;20197;-80
2023/01/30 12:27:05;;;;;;;13.17;4.80;;;6.60;99.90;;;;;;4954719;28;20671;-79
2023/01/30 12:32:48;;;;;;;7.90;3.63;;;6.70;99.90;;;;;;4937400;29;20207;-77
2023/01/30 12:35:27;;;;;;;17.97;4.10;;;6.70;99.90;;;;;;4954914;28;20197;-80
2023/01/30 12:38:25;;;;;;;12.53;3.80;;;6.80;99.90;;;;;;4954939;28;20210;-79
2023/01/30 12:41:04;;;;;;;16.83;5.10;;;6.70;99.90;;;;;;4954274;28;20531;-79
2023/01/30 12:43:59;;;;;;;21.27;4.83;;;6.70;99.90;;;;;;4960832;28;20322;-79
2023/01/30 12:50:23;;;;;;;14.53;5.97;;;6.70;99.90;;;;;;4911315;29;20601;-78
2023/01/30 12:53:24;;;;;;;16.13;4.70;;;6.80;99.90;;;;;;4950238;28;20202;-78
2023/01/30 12:59:36;;;;;;;11.53;3.43;;;6.90;99.90;;;;;;5004480;23;20231;-78
2023/01/30 13:02:44;;;;;;;13.43;4.23;;;6.90;99.90;;;;;;4954576;28;20232;-78
2023/01/30 13:05:38;;;;;;;17.60;6.03;;;6.90;99.90;;;;;;4899214;29;20225;-79
2023/01/30 13:08:37;;;;;;;16.60;5.87;;;6.90;99.90;;;;;;4914131;29;20685;-78
2023/01/30 13:11:32;;;;;;;;;;;;;;;;;;;;;
2023/01/30 13:14:30;;;;;;;10.03;3.60;;;6.90;99.90;;;;;;4915539;29;20234;-80
2023/01/30 13:17:29;;;;;;;16.70;4.03;;;6.80;99.90;;;;;;4933082;29;20208;-78
2023/01/30 13:20:04;;;;;;;12.40;5.37;;;6.80;99.90;;;;;;4873132;29;20647;-80
2023/01/30 13:22:44;;;;;;;13.43;4.90;;;6.80;99.90;;;;;;4866737;29;20796;-76
2023/01/30 13:25:22;;;;;;;6.27;3.53;;;6.80;99.90;;;;;;4853661;29;20668;-76
2023/01/30 13:28:06;;;;;;;15.73;3.87;;;6.70;99.90;;;;;;4868125;29;20247;-81
2023/01/30 13:30:54;;;;;;;16.60;7.80;;;6.70;99.90;;;;;;4875461;29;20263;-76
2023/01/30 13:33:35;;;;;;;16.07;6.97;;;6.70;99.90;;;;;;4876662;29;20200;-77
2023/01/30 13:36:11;;;;;;;11.30;4.73;;;6.80;99.90;;;;;;4876462;29;20249;-76
2023/01/30 13:39:00;;;;;;;12.00;4.73;;;6.80;99.90;;;;;;4873508;29;20227;-80
2023/01/30 13:41:33;;;;;;;17.50;5.43;;;6.80;99.90;;;;;;4882392;29;20216;-75
2023/01/30 13:44:12;;;;;;;16.33;7.33;;;6.80;99.90;;;;;;4913595;29;20288;-77
2023/01/30 13:46:47;;;;;;;13.33;4.47;;;6.80;99.90;;;;;;4895327;29;20258;-78
2023/01/30 13:49:23;;;;;;;15.87;4.83;;;6.90;99.90;;;;;;4895601;29;20218;-77
2023/01/30 13:52:01;;;;;;;17.33;6.37;;;6.80;99.90;;;;;;4895043;29;20203;-82
2023/01/30 13:54:52;;;;;;;12.83;4.50;;;6.80;99.90;;;;;;4895356;29;20239;-80
2023/01/30 13:57:34;;;;;;;17.30;5.80;;;6.80;99.90;;;;;;4945969;29;20209;-80
2023/01/30 14:00:31;;;;;;;12.37;4.97;;;6.70;99.90;;;;;;4978583;28;20281;-80
2023/01/30 14:03:27;;;;;;;12.73;3.70;;;6.80;99.90;;;;;;4919838;29;20811;-77
2023/01/30 14:06:36;;;;;;;12.63;4.80;;;6.70;99.90;;;;;;4930050;29;20247;-79
2023/01/30 14:09:26;;;;;;;12.77;4.13;;;6.70;99.90;;;;;;4936190;29;20845;-77
2023/01/30 14:12:05;;;;;;;13.97;4.40;;;6.70;99.90;;;;;;4929734;29;20283;-78
2023/01/30 14:14:38;;;;;;;10.97;4.83;;;6.60;99.90;;;;;;4914381;29;20215;-78
2023/01/30 14:17:27;;;;;;;14.93;4.60;;;6.70;99.90;;;;;;4898095;29;20241;-81
2023/01/30 14:20:20;;;;;;;15.83;4.03;;;6.60;99.90;;;;;;4889163;29;20712;-80
2023/01/30 14:23:05;;;;;;;14.03;5.23;;;6.70;99.90;;;;;;4908076;29;20229;-79
2023/01/30 14:25:45;;;;;;;9.77;4.53;;;6.70;99.90;;;;;;4935924;29;20209;-77
2023/01/30 14:28:54;;;;;;;13.53;5.37;;;6.70;99.90;;;;;;4936146;29;20566;-77
2023/01/30 14:34:45;;;;;;;17.57;5.00;;;6.70;99.90;;;;;;4918820;29;20229;-77
2023/01/30 14:37:47;;;;;;;12.13;5.33;;;6.70;99.90;;;;;;4913567;29;20216;-75
2023/01/30 14:41:12;;;;;;;21.80;9.97;;;6.70;99.90;;;;;;4967598;28;20216;-77